Milledgeville, GA

07:14 PM EDT del 28 Agosto 2014 (GMT -0400)
Baldwin County | Change Station
CLOSE
Current Station
Aeroporto
Location: Milledgeville,
Altitudine: 384 ft
Stazioni meteo nelle vicinanze

Alt. 384 ft 33.15 °N, 83.24 °W | Updated 24 minutes ago

Clear
Sereno
90 °F
Sembra 90 °F
N
0
Vento Variabile Vento da Nord

Oggi
Massima -- | Minima -- °F
--% Possibilità di precip.
Ieri
Massima -- | Minima -- °F
Precip. -- in
7:04 AM 8:03 PM
Luna crescente, 10% visible
Pressione 29.96 in
Visibilità 10.0 miglia
Nuvole Sereno
Indice di calore 90 °F
Punto di rugiada 61 °F
Umidità 38%
Piovosità 0.00 in
Spessore del manto nevoso Non disponibile.
Raggi UV 1 fuori da 12
Polline 7.90 fuori da 12
Qualità dell'aria Non disponibile.
Flu Activity Non disponibile.
METAR KMLJ 282250Z AUTO 00000KT 10SM CLR 32/16 A2996 RMK AO2

More Conditions Fewer Conditions

Pressione 29.96 in
Visibilità 10.0 miglia
Nuvole Sereno
Indice di calore 90 °F
Punto di rugiada 61 °F
Umidità 38%
Piovosità 0.00 in
Spessore del manto nevoso Non disponibile.
Raggi UV 1 fuori da 12
Polline 7.90 fuori da 12
Qualità dell'aria Non disponibile.
Flu Activity Non disponibile.
METAR KMLJ 282250Z AUTO 00000KT 10SM CLR 32/16 A2996 RMK AO2

More Conditions Fewer Conditions

10-Day Weather Forecast

Almanac

Astronomia

Aug. 28, 2014 Alba Tramonto
Ora attuale 07:04 EDT 20:03 EDT
Crepuscolo civile 06:39 EDT 20:28 EDT
Crepuscolo nautico 06:09 EDT 20:58 EDT
Crepuscolo astronomico 05:38 EDT 21:29 EDT
Luna 09:45 EDT 21:38 EDT
Estensione della luce visibile 13h 49m
Lunghezza del giorno
12h 58m
Tomorrow will be 1m 56s shorter.
Luna crescente, 10% of the Moon is Illuminated
Oggi
Luna crescente
Set 2
Primo quarto
Set 8
Luna piena
Set 15
Ultimo quarto
Set 24
Nuovo

Gli estremi di oggi

State Highs State Lows

Community

WunderPhotos

Upload Photos

1,748,102 foto caricate!

Nearby

Profondità neve

Stazione Profondità Altitudine
Non sono state evidenziate nuove nevicate

Attività sismica

Città  Distanza Mag. Data & Ora
Non sono state riportate attività sismiche nelle vicinanze.
Minimo Magnitudo Mostrato è 2.5.

Temperature delle acque costiere

Località Temperatura
Nessun dato dalle stazioni

Stazioni meteo nelle vicinanze